Pagrindinis puslapis
METAR-TAF:

METAR-TAF

Oro uostai :

Brevig Mission, Aliaska, Jungtinės Amerikos Valstijos

platuma: 65-19-53N, ilguma: 166-27-57W, Aukštis: 11 m

Dabartinis oras

Ataskaita buvo paskelbta 34 minutes, ne 20:56 UTC
Vėjas 7 kt iš Rytų
Temperatūra 2°C
Drėgmė 87%
Slėgis 1031 hPa
Matomumas: 16.1 km
Giedras dangus

METAR: PFKT 222056Z AUTO 08007KT 10SM CLR 02/00 A3045 RMK AO2 SLPNO 6//// T00220000 FZRANO

Laikas: 13:30 (21:30 UTC)


TAF: trūkstamas

Orai ataskaitas ir orų prognozės (METAR, TAF).

turimą stotys yra geltonos ir raudonos taškus žemėlapyje.

Perkelti pele per norėdami pamatyti stoties vardą.

Tada spustelėkite, norėdami matyti oro stebėjimo ir prognozės.

Norėdami pakeisti žemėlapį: spustelėkite ant žalios mygtukų su juodo kryžiaus žemyn,; žalią mygtuką su brūkšneliu, jei norite nutolinti; arba žalių rodyklių gretimoms žemėlapius.


METAR-TAF: